Time;durP1;ratioP1;P1;durP2;ratioP2;P2;SDS_P1;SDS_P2;PMS_P1;PMS_P2;Temp;Humidity;BMP_temperature;BMP_pressure;BME280_temperature;BME280_humidity;BME280_pressure;Samples;Min_cycle;Max_cycle;Signal;HPM_P1;HPM_P2
2023/12/10 00:01:16;;;;;;;16.77;4.63;;;;;;;;;;4931636;29;20209;-73
2023/12/10 00:03:41;;;;;;;22.13;7.00;;;;;;;;;;4925747;29;20206;-72
2023/12/10 00:06:07;;;;;;;16.60;5.87;;;;;;;;;;4932569;29;20284;-72
2023/12/10 00:08:32;;;;;;;13.00;4.53;;;;;;;;;;4931591;29;20186;-72
2023/12/10 00:10:57;;;;;;;14.63;4.97;;;;;;;;;;4932553;29;20203;-72
2023/12/10 00:13:22;;;;;;;18.87;5.67;;;;;;;;;;4930626;29;20181;-73
2023/12/10 00:15:48;;;;;;;19.60;4.70;;;;;;;;;;4929485;29;20291;-72
2023/12/10 00:18:13;;;;;;;27.43;6.37;;;;;;;;;;4932451;29;20184;-72
2023/12/10 00:20:38;;;;;;;24.70;7.50;;;;;;;;;;4930557;29;20299;-72
2023/12/10 00:23:03;;;;;;;19.77;6.23;;;;;;;;;;4931778;29;20217;-72
2023/12/10 00:25:31;;;;;;;19.30;5.80;;;;;;;;;;4931176;29;20182;-72
2023/12/10 00:27:56;;;;;;;15.87;5.97;;;;;;;;;;4929754;29;20189;-72
2023/12/10 00:30:22;;;;;;;24.63;6.33;;;;;;;;;;4930838;29;20184;-72
2023/12/10 00:32:47;;;;;;;27.53;5.97;;;;;;;;;;4930434;29;20207;-72
2023/12/10 00:35:12;;;;;;;18.13;6.77;;;;;;;;;;4931292;29;20220;-72
2023/12/10 00:37:37;;;;;;;28.37;8.00;;;;;;;;;;4931984;29;20192;-72
2023/12/10 00:40:06;;;;;;;18.57;7.10;;;;;;;;;;4935880;29;20226;-72
2023/12/10 00:42:33;;;;;;;28.70;8.20;;;;;;;;;;4930330;29;20189;-72
2023/12/10 00:44:58;;;;;;;25.43;6.93;;;;;;;;;;4933737;29;20184;-73
2023/12/10 00:47:24;;;;;;;22.13;6.10;;;;;;;;;;4929907;29;20199;-72
2023/12/10 00:49:49;;;;;;;27.30;8.20;;;;;;;;;;4931414;29;20191;-72
2023/12/10 00:52:14;;;;;;;24.77;6.93;;;;;;;;;;4932585;29;20273;-72
2023/12/10 00:54:40;;;;;;;29.47;8.90;;;;;;;;;;4937240;29;20274;-72
2023/12/10 00:57:05;;;;;;;24.17;7.13;;;;;;;;;;4934047;29;20228;-72
2023/12/10 00:59:30;;;;;;;28.37;8.17;;;;;;;;;;4936920;29;20201;-72
2023/12/10 01:01:55;;;;;;;23.90;8.27;;;;;;;;;;4936924;29;20195;-72
2023/12/10 01:04:22;;;;;;;20.37;7.27;;;;;;;;;;4932486;29;20172;-72
2023/12/10 01:06:47;;;;;;;25.87;9.23;;;;;;;;;;4931480;29;20214;-72
2023/12/10 01:09:15;;;;;;;25.80;6.60;;;;;;;;;;4932205;29;20181;-72
2023/12/10 01:11:40;;;;;;;29.70;6.43;;;;;;;;;;4931733;29;20186;-72
2023/12/10 01:14:06;;;;;;;26.37;7.63;;;;;;;;;;4930155;29;20189;-72
2023/12/10 01:16:31;;;;;;;27.00;8.00;;;;;;;;;;4933524;29;20192;-72
2023/12/10 01:18:56;;;;;;;30.53;8.53;;;;;;;;;;4931372;29;20184;-72
2023/12/10 01:21:22;;;;;;;28.00;7.53;;;;;;;;;;4930731;29;20548;-72
2023/12/10 01:23:49;;;;;;;28.70;7.87;;;;;;;;;;4931581;29;20185;-72
2023/12/10 01:26:15;;;;;;;29.27;7.10;;;;;;;;;;4932486;29;20180;-72
2023/12/10 01:28:40;;;;;;;19.27;7.23;;;;;;;;;;4928669;29;20185;-72
2023/12/10 01:31:05;;;;;;;16.90;6.70;;;;;;;;;;4930850;29;20207;-72
2023/12/10 01:33:30;;;;;;;23.80;6.57;;;;;;;;;;4924589;29;20203;-72
2023/12/10 01:35:56;;;;;;;22.37;5.67;;;;;;;;;;4934528;29;20215;-72
2023/12/10 01:38:21;;;;;;;23.97;5.43;;;;;;;;;;4933578;29;20185;-72
2023/12/10 01:40:46;;;;;;;23.33;6.53;;;;;;;;;;4933070;29;20209;-72
2023/12/10 01:43:11;;;;;;;22.17;5.13;;;;;;;;;;4930297;29;20269;-72
2023/12/10 01:45:37;;;;;;;11.77;4.00;;;;;;;;;;4931921;29;20181;-72
2023/12/10 01:48:06;;;;;;;20.27;6.27;;;;;;;;;;4933259;29;20188;-72
2023/12/10 01:50:35;;;;;;;30.83;8.23;;;;;;;;;;4932286;29;20290;-72
2023/12/10 01:53:00;;;;;;;17.97;5.40;;;;;;;;;;4931228;29;20189;-72
2023/12/10 01:55:25;;;;;;;22.93;6.80;;;;;;;;;;4931381;29;20185;-72
2023/12/10 01:57:52;;;;;;;18.93;6.73;;;;;;;;;;4924590;29;20194;-72
2023/12/10 02:00:18;;;;;;;13.20;5.07;;;;;;;;;;4929340;29;20324;-72
2023/12/10 02:02:44;;;;;;;17.87;6.13;;;;;;;;;;4930384;29;20179;-73
2023/12/10 02:05:09;;;;;;;11.80;4.27;;;;;;;;;;4931199;29;20259;-72
2023/12/10 02:07:35;;;;;;;16.70;4.90;;;;;;;;;;4931204;29;20286;-72
2023/12/10 02:10:00;;;;;;;9.03;3.07;;;;;;;;;;4931819;29;20176;-72
2023/12/10 02:12:29;;;;;;;9.63;3.83;;;;;;;;;;4929753;29;20213;-72
2023/12/10 02:14:54;;;;;;;6.27;2.40;;;;;;;;;;4930472;29;20193;-72
2023/12/10 02:17:20;;;;;;;8.13;3.13;;;;;;;;;;4930492;29;20195;-72
2023/12/10 02:19:45;;;;;;;9.33;3.20;;;;;;;;;;4929531;29;20201;-72
2023/12/10 02:22:13;;;;;;;10.20;2.73;;;;;;;;;;4927574;29;20180;-73
2023/12/10 02:24:42;;;;;;;6.87;2.83;;;;;;;;;;4931608;29;20191;-72
2023/12/10 02:27:08;;;;;;;4.63;2.03;;;;;;;;;;4927791;29;20189;-72
2023/12/10 02:29:34;;;;;;;12.80;3.60;;;;;;;;;;4931525;29;20185;-72
2023/12/10 02:31:59;;;;;;;11.53;2.83;;;;;;;;;;4923007;29;20185;-73
2023/12/10 02:34:24;;;;;;;6.67;2.50;;;;;;;;;;4930400;29;20187;-72
2023/12/10 02:36:49;;;;;;;7.90;3.03;;;;;;;;;;4932034;29;20189;-72
2023/12/10 02:39:15;;;;;;;10.40;2.80;;;;;;;;;;4934991;29;20225;-72
2023/12/10 02:41:40;;;;;;;15.00;4.27;;;;;;;;;;4927721;29;20230;-72
2023/12/10 02:44:06;;;;;;;10.13;3.93;;;;;;;;;;4928217;29;20199;-72
2023/12/10 02:46:31;;;;;;;10.47;4.57;;;;;;;;;;4930448;29;20185;-72
2023/12/10 02:48:56;;;;;;;10.43;5.17;;;;;;;;;;4926695;29;20227;-72
2023/12/10 02:51:22;;;;;;;12.70;4.33;;;;;;;;;;4929608;29;20190;-72
2023/12/10 02:53:47;;;;;;;12.37;3.57;;;;;;;;;;4932290;29;20268;-72
2023/12/10 02:56:12;;;;;;;22.03;5.80;;;;;;;;;;4931547;29;20177;-72
2023/12/10 02:58:37;;;;;;;18.70;4.37;;;;;;;;;;4926315;29;20186;-72
2023/12/10 03:01:04;;;;;;;21.20;5.10;;;;;;;;;;4929050;29;20225;-72
2023/12/10 03:03:30;;;;;;;13.50;4.70;;;;;;;;;;4924657;29;20248;-72
2023/12/10 03:05:56;;;;;;;15.00;5.57;;;;;;;;;;4928810;29;20240;-72
2023/12/10 03:08:21;;;;;;;12.83;4.27;;;;;;;;;;4930338;29;20201;-72
2023/12/10 03:10:46;;;;;;;19.43;5.00;;;;;;;;;;4931452;29;20229;-72
2023/12/10 03:13:12;;;;;;;14.03;4.90;;;;;;;;;;4927599;29;20180;-72
2023/12/10 03:15:37;;;;;;;14.20;4.60;;;;;;;;;;4931976;29;20184;-72
2023/12/10 03:18:02;;;;;;;16.17;4.10;;;;;;;;;;4931876;29;20174;-72
2023/12/10 03:20:27;;;;;;;17.53;5.07;;;;;;;;;;4926153;29;20219;-72
2023/12/10 03:22:52;;;;;;;16.80;3.50;;;;;;;;;;4931064;29;20186;-72
2023/12/10 03:25:18;;;;;;;13.93;5.97;;;;;;;;;;4929605;29;20247;-72
2023/12/10 03:27:43;;;;;;;10.57;3.90;;;;;;;;;;4928248;29;20169;-72
2023/12/10 03:30:08;;;;;;;17.13;5.57;;;;;;;;;;4923862;29;20179;-72
2023/12/10 03:32:33;;;;;;;16.20;5.60;;;;;;;;;;4929073;29;20180;-72
2023/12/10 03:34:59;;;;;;;18.63;4.67;;;;;;;;;;4929124;29;20187;-72
2023/12/10 03:37:24;;;;;;;20.43;4.90;;;;;;;;;;4927464;29;20198;-72
2023/12/10 03:39:49;;;;;;;11.83;3.57;;;;;;;;;;4929469;29;20242;-72
2023/12/10 03:42:15;;;;;;;16.07;4.57;;;;;;;;;;4932211;29;20178;-72
2023/12/10 03:44:40;;;;;;;16.57;4.13;;;;;;;;;;4930463;29;20209;-72
2023/12/10 03:47:05;;;;;;;20.57;5.93;;;;;;;;;;4927404;29;20185;-72
2023/12/10 03:49:30;;;;;;;10.73;3.57;;;;;;;;;;4927275;29;20175;-72
2023/12/10 03:51:56;;;;;;;15.23;3.80;;;;;;;;;;4929802;29;20185;-72
2023/12/10 03:54:21;;;;;;;15.63;4.97;;;;;;;;;;4931321;28;20638;-72
2023/12/10 03:56:46;;;;;;;13.10;5.37;;;;;;;;;;4930485;29;20186;-72
2023/12/10 03:59:12;;;;;;;13.40;4.07;;;;;;;;;;4929887;29;20184;-72
2023/12/10 04:01:40;;;;;;;12.13;3.70;;;;;;;;;;4927776;29;20232;-72
2023/12/10 04:04:05;;;;;;;17.97;4.53;;;;;;;;;;4934190;29;20185;-72
2023/12/10 04:06:30;;;;;;;13.77;4.07;;;;;;;;;;4929438;29;20179;-72
2023/12/10 04:08:55;;;;;;;12.30;5.43;;;;;;;;;;4933147;29;20262;-72
2023/12/10 04:11:24;;;;;;;14.43;4.50;;;;;;;;;;4938349;29;20178;-72
2023/12/10 04:13:49;;;;;;;19.23;5.17;;;;;;;;;;4932564;29;20197;-72
2023/12/10 04:16:22;;;;;;;16.43;4.63;;;;;;;;;;4932927;29;20317;-72
2023/12/10 04:18:48;;;;;;;18.30;5.23;;;;;;;;;;4931239;29;20284;-72
2023/12/10 04:21:13;;;;;;;22.90;5.23;;;;;;;;;;4924178;29;20287;-72
2023/12/10 04:23:38;;;;;;;16.10;4.77;;;;;;;;;;4930980;29;20176;-72
2023/12/10 04:26:03;;;;;;;9.63;3.57;;;;;;;;;;4932486;29;20190;-72
2023/12/10 04:28:28;;;;;;;17.93;4.00;;;;;;;;;;4925801;29;20224;-72
2023/12/10 04:30:54;;;;;;;14.20;3.60;;;;;;;;;;4931094;29;20267;-72
2023/12/10 04:33:19;;;;;;;14.33;4.43;;;;;;;;;;4930125;29;20178;-72
2023/12/10 04:35:44;;;;;;;8.73;3.90;;;;;;;;;;4930821;29;20221;-72
2023/12/10 04:38:09;;;;;;;15.07;4.83;;;;;;;;;;4932603;29;20190;-72
2023/12/10 04:40:35;;;;;;;15.30;5.47;;;;;;;;;;4933814;29;20229;-72
2023/12/10 04:43:00;;;;;;;15.70;5.17;;;;;;;;;;4931327;29;20184;-72
2023/12/10 04:45:25;;;;;;;13.37;4.67;;;;;;;;;;4934975;29;20171;-72
2023/12/10 04:47:50;;;;;;;13.60;4.37;;;;;;;;;;4931764;29;20268;-72
2023/12/10 04:50:16;;;;;;;13.10;4.33;;;;;;;;;;4930062;29;20195;-72
2023/12/10 04:52:41;;;;;;;17.10;5.43;;;;;;;;;;4925756;29;20190;-72
2023/12/10 04:55:06;;;;;;;16.40;4.40;;;;;;;;;;4925975;29;20464;-72
2023/12/10 04:57:31;;;;;;;17.37;4.67;;;;;;;;;;4932315;29;20318;-72
2023/12/10 04:59:56;;;;;;;14.03;5.10;;;;;;;;;;4931133;29;20205;-72
2023/12/10 05:02:22;;;;;;;16.00;5.87;;;;;;;;;;4931252;29;20191;-72
2023/12/10 05:04:47;;;;;;;11.67;4.03;;;;;;;;;;4928204;29;20203;-72
2023/12/10 05:07:12;;;;;;;11.07;4.47;;;;;;;;;;4930462;29;20257;-72
2023/12/10 05:09:37;;;;;;;20.03;5.27;;;;;;;;;;4930689;29;20177;-72
2023/12/10 05:12:03;;;;;;;15.63;5.13;;;;;;;;;;4927073;29;20178;-72
2023/12/10 05:14:28;;;;;;;13.70;4.13;;;;;;;;;;4931506;29;20175;-72
2023/12/10 05:16:56;;;;;;;18.33;5.50;;;;;;;;;;4931800;29;20191;-72
2023/12/10 05:19:21;;;;;;;15.87;4.27;;;;;;;;;;4928596;29;20189;-72
2023/12/10 05:21:46;;;;;;;14.37;5.10;;;;;;;;;;4930407;29;20206;-72
2023/12/10 05:24:12;;;;;;;15.23;4.70;;;;;;;;;;4931341;29;20186;-72
2023/12/10 05:26:38;;;;;;;8.63;3.60;;;;;;;;;;4934990;29;20235;-72
2023/12/10 05:29:03;;;;;;;9.57;4.63;;;;;;;;;;4936215;29;20247;-72
2023/12/10 05:31:28;;;;;;;13.13;3.20;;;;;;;;;;4927259;29;20270;-72
2023/12/10 05:33:53;;;;;;;12.53;3.43;;;;;;;;;;4925801;29;20183;-72
2023/12/10 05:36:18;;;;;;;14.50;5.23;;;;;;;;;;4922982;29;20192;-72
2023/12/10 05:38:44;;;;;;;12.13;4.00;;;;;;;;;;4932654;29;20228;-72
2023/12/10 05:41:09;;;;;;;13.13;4.03;;;;;;;;;;4931764;29;20206;-72
2023/12/10 05:43:35;;;;;;;12.67;3.93;;;;;;;;;;4928489;29;20249;-72
2023/12/10 05:46:00;;;;;;;11.47;3.40;;;;;;;;;;4929738;29;20173;-72
2023/12/10 05:48:27;;;;;;;15.33;3.23;;;;;;;;;;4928480;29;20182;-72
2023/12/10 05:50:52;;;;;;;14.63;3.93;;;;;;;;;;4931623;29;20187;-72
2023/12/10 05:53:18;;;;;;;12.17;4.27;;;;;;;;;;4926300;29;20228;-72
2023/12/10 05:55:43;;;;;;;23.43;5.10;;;;;;;;;;4931522;29;20242;-72
2023/12/10 05:58:08;;;;;;;14.30;5.50;;;;;;;;;;4927113;29;20181;-72
2023/12/10 06:00:33;;;;;;;10.77;3.87;;;;;;;;;;4930909;29;20213;-72
2023/12/10 06:02:59;;;;;;;7.77;3.87;;;;;;;;;;4928363;29;20182;-72
2023/12/10 06:05:24;;;;;;;14.33;4.43;;;;;;;;;;4930411;29;20196;-72
2023/12/10 06:07:49;;;;;;;11.27;4.87;;;;;;;;;;4931627;29;20174;-71
2023/12/10 06:10:14;;;;;;;14.33;3.93;;;;;;;;;;4931295;29;20201;-72
2023/12/10 06:12:40;;;;;;;11.30;4.93;;;;;;;;;;4931121;29;20201;-72
2023/12/10 06:15:05;;;;;;;16.33;4.30;;;;;;;;;;4935510;29;20182;-72
2023/12/10 06:17:30;;;;;;;13.40;4.90;;;;;;;;;;4926330;29;20182;-72
2023/12/10 06:19:55;;;;;;;11.03;4.50;;;;;;;;;;4930233;29;20289;-72
2023/12/10 06:22:21;;;;;;;13.70;3.30;;;;;;;;;;4925714;29;20234;-72
2023/12/10 06:24:46;;;;;;;12.00;3.40;;;;;;;;;;4929166;29;20184;-72
2023/12/10 06:27:11;;;;;;;13.00;3.50;;;;;;;;;;4928906;29;20608;-72
2023/12/10 06:29:36;;;;;;;10.13;3.97;;;;;;;;;;4928216;29;20186;-72
2023/12/10 06:32:02;;;;;;;12.10;4.00;;;;;;;;;;4924586;29;20182;-72
2023/12/10 06:34:27;;;;;;;9.17;3.23;;;;;;;;;;4928523;29;20187;-72
2023/12/10 06:36:52;;;;;;;13.20;4.70;;;;;;;;;;4926386;29;20271;-72
2023/12/10 06:39:18;;;;;;;14.20;4.77;;;;;;;;;;4929642;29;20179;-72
2023/12/10 06:41:43;;;;;;;13.20;3.70;;;;;;;;;;4928935;29;20202;-72
2023/12/10 06:44:09;;;;;;;12.10;4.93;;;;;;;;;;4929481;29;20266;-72
2023/12/10 06:46:36;;;;;;;14.20;4.10;;;;;;;;;;4924301;29;20176;-72
2023/12/10 06:49:01;;;;;;;9.47;3.57;;;;;;;;;;4918786;29;20184;-72
2023/12/10 06:51:26;;;;;;;14.57;4.17;;;;;;;;;;4930496;29;20186;-72
2023/12/10 06:53:51;;;;;;;11.53;3.53;;;;;;;;;;4931032;29;20242;-72
2023/12/10 06:56:17;;;;;;;8.63;2.57;;;;;;;;;;4929710;29;20185;-72
2023/12/10 06:58:42;;;;;;;11.80;4.17;;;;;;;;;;4929092;29;20240;-72
2023/12/10 07:01:07;;;;;;;14.63;4.87;;;;;;;;;;4931226;29;20214;-72
2023/12/10 07:03:32;;;;;;;22.07;5.10;;;;;;;;;;4925033;29;20206;-72
2023/12/10 07:05:58;;;;;;;15.60;4.77;;;;;;;;;;4930724;29;20177;-72
2023/12/10 07:08:24;;;;;;;18.67;9.47;;;;;;;;;;4928502;29;20359;-71
2023/12/10 07:10:49;;;;;;;16.33;7.60;;;;;;;;;;4925950;29;20273;-72
2023/12/10 07:13:14;;;;;;;17.20;7.33;;;;;;;;;;4930322;29;20179;-72
2023/12/10 07:15:42;;;;;;;23.87;7.20;;;;;;;;;;4926173;29;20170;-72
2023/12/10 07:18:07;;;;;;;16.57;4.93;;;;;;;;;;4919143;29;20231;-72
2023/12/10 07:20:32;;;;;;;14.57;4.17;;;;;;;;;;4907319;29;20209;-71
2023/12/10 07:22:58;;;;;;;13.77;4.20;;;;;;;;;;4906444;29;21072;-72
2023/12/10 07:25:23;;;;;;;12.77;3.43;;;;;;;;;;4909435;29;20190;-71
2023/12/10 07:27:48;;;;;;;13.73;4.20;;;;;;;;;;4908634;29;20223;-71
2023/12/10 07:30:13;;;;;;;16.20;4.40;;;;;;;;;;4906826;29;20219;-72
2023/12/10 07:32:38;;;;;;;13.43;3.60;;;;;;;;;;4910337;29;20178;-72
2023/12/10 07:35:04;;;;;;;40.50;21.43;;;;;;;;;;4911586;29;20181;-72
2023/12/10 07:37:29;;;;;;;31.27;19.13;;;;;;;;;;4914588;29;20189;-72
2023/12/10 07:39:54;;;;;;;17.63;11.40;;;;;;;;;;4913950;29;20218;-72
2023/12/10 07:42:19;;;;;;;10.77;6.50;;;;;;;;;;4915885;29;20186;-72
2023/12/10 07:44:45;;;;;;;9.73;4.63;;;;;;;;;;4912599;29;20181;-72
2023/12/10 07:47:10;;;;;;;13.73;3.97;;;;;;;;;;4927353;29;20204;-71
2023/12/10 07:49:35;;;;;;;13.90;3.53;;;;;;;;;;4912807;29;20191;-71
2023/12/10 07:52:00;;;;;;;11.03;3.03;;;;;;;;;;4914332;29;20188;-71
2023/12/10 07:54:25;;;;;;;13.07;4.07;;;;;;;;;;4915709;29;20230;-72
2023/12/10 07:56:51;;;;;;;12.53;3.30;;;;;;;;;;4914544;29;20235;-72
2023/12/10 07:59:16;;;;;;;14.20;4.30;;;;;;;;;;4908915;29;20239;-72
2023/12/10 08:01:41;;;;;;;9.93;3.60;;;;;;;;;;4910184;29;20206;-72
2023/12/10 08:04:06;;;;;;;15.03;3.23;;;;;;;;;;4911939;29;20321;-71
2023/12/10 08:06:32;;;;;;;11.67;3.83;;;;;;;;;;4911567;29;20440;-72
2023/12/10 08:08:57;;;;;;;9.50;3.97;;;;;;;;;;4910973;29;20182;-71
2023/12/10 08:11:22;;;;;;;12.93;5.20;;;;;;;;;;4912682;29;20186;-72
2023/12/10 08:13:48;;;;;;;10.73;3.67;;;;;;;;;;4912676;29;21146;-71
2023/12/10 08:16:14;;;;;;;14.67;4.30;;;;;;;;;;4914135;29;20196;-72
2023/12/10 08:18:39;;;;;;;12.40;3.90;;;;;;;;;;4913402;29;20198;-72
2023/12/10 08:21:05;;;;;;;16.10;3.93;;;;;;;;;;4907095;29;20248;-71
2023/12/10 08:23:30;;;;;;;11.40;4.00;;;;;;;;;;4909589;29;20179;-71
2023/12/10 08:25:55;;;;;;;14.07;4.60;;;;;;;;;;4911051;29;20222;-72
2023/12/10 08:28:20;;;;;;;14.93;4.27;;;;;;;;;;4911402;29;20189;-71
2023/12/10 08:30:46;;;;;;;11.03;3.17;;;;;;;;;;4913065;29;20186;-71
2023/12/10 08:33:11;;;;;;;10.17;4.00;;;;;;;;;;4908815;29;20197;-71
2023/12/10 08:35:36;;;;;;;12.13;3.87;;;;;;;;;;4916555;29;20190;-72
2023/12/10 08:38:01;;;;;;;9.23;2.83;;;;;;;;;;4914285;29;20246;-72
2023/12/10 08:40:26;;;;;;;14.33;5.10;;;;;;;;;;4919915;29;20211;-71
2023/12/10 08:42:52;;;;;;;13.07;3.47;;;;;;;;;;4912325;29;20188;-71
2023/12/10 08:45:17;;;;;;;13.43;3.27;;;;;;;;;;4912068;29;20183;-72
2023/12/10 08:47:42;;;;;;;11.90;3.33;;;;;;;;;;4912767;29;20231;-71
2023/12/10 08:50:08;;;;;;;10.53;3.63;;;;;;;;;;4912286;29;20188;-71
2023/12/10 08:52:33;;;;;;;8.63;2.50;;;;;;;;;;4906817;29;20187;-72
2023/12/10 08:54:58;;;;;;;17.70;9.33;;;;;;;;;;4907055;29;20325;-72
2023/12/10 08:57:24;;;;;;;11.33;4.00;;;;;;;;;;4912166;29;20270;-72
2023/12/10 08:59:49;;;;;;;14.60;5.13;;;;;;;;;;4903923;29;20211;-72
2023/12/10 09:02:14;;;;;;;11.80;5.20;;;;;;;;;;4908108;29;20185;-72
2023/12/10 09:04:39;;;;;;;19.20;9.27;;;;;;;;;;4910255;29;20255;-71
2023/12/10 09:07:05;;;;;;;10.07;3.80;;;;;;;;;;4909794;29;20187;-72
2023/12/10 09:09:32;;;;;;;10.00;3.37;;;;;;;;;;4902754;29;20193;-72
2023/12/10 09:11:57;;;;;;;16.57;6.20;;;;;;;;;;4908789;29;20194;-72
2023/12/10 09:14:22;;;;;;;14.73;5.27;;;;;;;;;;4910605;29;20189;-72
2023/12/10 09:16:48;;;;;;;17.67;7.40;;;;;;;;;;4909935;29;20357;-72
2023/12/10 09:19:13;;;;;;;14.63;5.20;;;;;;;;;;4907331;29;20198;-72
2023/12/10 09:21:39;;;;;;;13.90;4.40;;;;;;;;;;4906580;29;20207;-72
2023/12/10 09:24:04;;;;;;;16.60;7.07;;;;;;;;;;4908900;29;20215;-72
2023/12/10 09:26:30;;;;;;;25.23;13.93;;;;;;;;;;4906376;29;20304;-72
2023/12/10 09:28:55;;;;;;;19.90;10.23;;;;;;;;;;4912793;29;20180;-72
2023/12/10 09:31:21;;;;;;;14.90;5.37;;;;;;;;;;4905172;29;20186;-72
2023/12/10 09:33:46;;;;;;;21.03;8.57;;;;;;;;;;4904034;29;20197;-72
2023/12/10 09:36:12;;;;;;;18.67;8.83;;;;;;;;;;4907924;29;20184;-72
2023/12/10 09:38:37;;;;;;;16.23;7.30;;;;;;;;;;4921816;29;20206;-71
2023/12/10 09:41:02;;;;;;;25.80;11.17;;;;;;;;;;4898808;29;20203;-72
2023/12/10 09:43:28;;;;;;;11.53;4.50;;;;;;;;;;4899795;29;20189;-71
2023/12/10 09:45:53;;;;;;;14.00;3.50;;;;;;;;;;4907544;29;20182;-71
2023/12/10 09:48:18;;;;;;;23.33;7.23;;;;;;;;;;4909789;29;20234;-71
2023/12/10 09:50:43;;;;;;;19.10;4.80;;;;;;;;;;4905636;29;20212;-71
2023/12/10 09:53:10;;;;;;;11.87;3.73;;;;;;;;;;4906252;29;20201;-71
2023/12/10 09:55:35;;;;;;;9.70;3.47;;;;;;;;;;4904211;29;20190;-71
2023/12/10 09:58:01;;;;;;;15.40;5.03;;;;;;;;;;4903382;29;20184;-72
2023/12/10 10:00:26;;;;;;;11.83;4.70;;;;;;;;;;4903860;29;20209;-72
2023/12/10 10:02:58;;;;;;;11.97;4.60;;;;;;;;;;4904504;29;20195;-72
2023/12/10 10:05:24;;;;;;;13.13;4.83;;;;;;;;;;4913841;29;20206;-72
2023/12/10 10:07:49;;;;;;;8.80;3.97;;;;;;;;;;4909904;29;20213;-72
2023/12/10 10:10:14;;;;;;;14.53;3.90;;;;;;;;;;4911422;29;20193;-72
2023/12/10 10:12:41;;;;;;;9.87;3.10;;;;;;;;;;4909463;29;20197;-72
2023/12/10 10:15:07;;;;;;;15.23;4.20;;;;;;;;;;4912791;29;20186;-71
2023/12/10 10:17:34;;;;;;;12.70;4.17;;;;;;;;;;4914044;29;20190;-71
2023/12/10 10:20:00;;;;;;;8.83;3.37;;;;;;;;;;4910421;29;20189;-71
2023/12/10 10:22:26;;;;;;;11.97;3.37;;;;;;;;;;4910359;29;20182;-71
2023/12/10 10:24:51;;;;;;;13.77;3.77;;;;;;;;;;4913915;29;20190;-71
2023/12/10 10:27:17;;;;;;;9.30;3.23;;;;;;;;;;4912791;29;20182;-72
2023/12/10 10:29:42;;;;;;;10.07;3.27;;;;;;;;;;4913804;29;20178;-71
2023/12/10 10:32:10;;;;;;;13.47;4.27;;;;;;;;;;4913008;29;20195;-71
2023/12/10 10:34:35;;;;;;;12.83;2.80;;;;;;;;;;4909713;29;20237;-71
2023/12/10 10:37:00;;;;;;;11.90;4.33;;;;;;;;;;4907645;29;20224;-71
2023/12/10 10:39:27;;;;;;;13.97;3.93;;;;;;;;;;4912236;29;20189;-71
2023/12/10 10:41:52;;;;;;;11.07;4.07;;;;;;;;;;4913599;29;20235;-71
2023/12/10 10:44:17;;;;;;;16.03;4.57;;;;;;;;;;4912338;29;20208;-72
2023/12/10 10:46:43;;;;;;;9.83;3.33;;;;;;;;;;4915833;29;20179;-71
2023/12/10 10:49:08;;;;;;;13.73;4.23;;;;;;;;;;4912554;29;20188;-71
2023/12/10 10:51:33;;;;;;;12.43;3.87;;;;;;;;;;4909579;29;20187;-71
2023/12/10 10:54:02;;;;;;;13.63;3.73;;;;;;;;;;4912063;29;20241;-71
2023/12/10 10:56:27;;;;;;;14.13;3.13;;;;;;;;;;4913486;29;20186;-71
2023/12/10 10:58:52;;;;;;;15.03;4.37;;;;;;;;;;4911992;29;20213;-71
2023/12/10 11:01:38;;;;;;;11.37;3.87;;;;;;;;;;4913542;29;20221;-72
2023/12/10 11:04:03;;;;;;;11.90;4.07;;;;;;;;;;4909613;29;20188;-71
2023/12/10 11:06:29;;;;;;;10.80;4.07;;;;;;;;;;4909632;29;20190;-71
2023/12/10 11:08:56;;;;;;;13.57;4.50;;;;;;;;;;4908626;29;20212;-71
2023/12/10 11:11:24;;;;;;;12.50;4.07;;;;;;;;;;4912507;29;20186;-72
2023/12/10 11:13:49;;;;;;;14.50;5.53;;;;;;;;;;4911229;29;20196;-71
2023/12/10 11:16:14;;;;;;;12.83;3.93;;;;;;;;;;4906281;29;20192;-72
2023/12/10 11:18:50;;;;;;;14.27;4.30;;;;;;;;;;4908295;29;20186;-71
2023/12/10 11:21:15;;;;;;;12.10;4.07;;;;;;;;;;4910542;29;20205;-71
2023/12/10 11:23:40;;;;;;;11.10;2.97;;;;;;;;;;4911949;29;20178;-71
2023/12/10 11:26:06;;;;;;;13.57;4.23;;;;;;;;;;4910065;29;20185;-71
2023/12/10 11:28:31;;;;;;;15.00;4.87;;;;;;;;;;4909645;29;20249;-71
2023/12/10 11:30:56;;;;;;;8.00;3.70;;;;;;;;;;4910172;29;20202;-71
2023/12/10 11:33:21;;;;;;;8.73;3.20;;;;;;;;;;4911065;29;20186;-71
2023/12/10 11:35:47;;;;;;;10.10;4.00;;;;;;;;;;4911720;29;20181;-71
2023/12/10 11:38:12;;;;;;;11.07;3.93;;;;;;;;;;4919260;29;20192;-71
2023/12/10 11:40:37;;;;;;;13.60;3.93;;;;;;;;;;4909604;29;20212;-71
2023/12/10 11:43:06;;;;;;;11.90;3.43;;;;;;;;;;4907531;29;20277;-71
2023/12/10 11:45:32;;;;;;;10.20;3.67;;;;;;;;;;4909281;29;20199;-71
2023/12/10 11:47:57;;;;;;;10.60;3.83;;;;;;;;;;4906453;29;20184;-71
2023/12/10 11:50:23;;;;;;;10.43;4.00;;;;;;;;;;4918551;29;20191;-71
2023/12/10 11:52:48;;;;;;;11.57;4.10;;;;;;;;;;4908837;29;20196;-71
2023/12/10 11:55:14;;;;;;;10.93;4.77;;;;;;;;;;4909080;29;20332;-71
2023/12/10 11:57:42;;;;;;;17.17;8.30;;;;;;;;;;4910634;29;20631;-71
2023/12/10 12:00:08;;;;;;;12.50;5.73;;;;;;;;;;4903060;29;20195;-71
2023/12/10 12:02:38;;;;;;;20.27;6.63;;;;;;;;;;4904105;29;20183;-71
2023/12/10 12:05:06;;;;;;;10.90;4.17;;;;;;;;;;4904816;29;20180;-71
2023/12/10 12:07:32;;;;;;;14.33;3.90;;;;;;;;;;4908277;29;20171;-71
2023/12/10 12:09:57;;;;;;;17.50;4.07;;;;;;;;;;4909924;29;20211;-71
2023/12/10 12:12:23;;;;;;;11.03;4.53;;;;;;;;;;4923073;29;20190;-71
2023/12/10 12:14:51;;;;;;;10.60;3.27;;;;;;;;;;4908769;29;20206;-71
2023/12/10 12:17:18;;;;;;;9.27;3.80;;;;;;;;;;4909043;29;20198;-71
2023/12/10 12:19:43;;;;;;;10.87;3.03;;;;;;;;;;4901634;29;20193;-71
2023/12/10 12:22:09;;;;;;;9.27;3.77;;;;;;;;;;4906042;29;20212;-71
2023/12/10 12:24:35;;;;;;;10.70;4.90;;;;;;;;;;4910858;29;20190;-71
2023/12/10 12:27:00;;;;;;;10.40;4.80;;;;;;;;;;4914120;29;20185;-71
2023/12/10 12:29:25;;;;;;;16.90;4.20;;;;;;;;;;4911971;29;20188;-71
2023/12/10 12:31:50;;;;;;;9.03;3.17;;;;;;;;;;4913720;29;20183;-71
2023/12/10 12:34:16;;;;;;;11.20;3.17;;;;;;;;;;4914333;29;20205;-71
2023/12/10 12:36:42;;;;;;;17.83;3.53;;;;;;;;;;4908406;29;20252;-71
2023/12/10 12:39:08;;;;;;;11.90;3.73;;;;;;;;;;4913171;29;20188;-71
2023/12/10 12:41:33;;;;;;;11.23;4.23;;;;;;;;;;4915205;29;20226;-71
2023/12/10 12:43:58;;;;;;;10.27;3.77;;;;;;;;;;4914339;29;20269;-71
2023/12/10 12:46:24;;;;;;;11.20;3.27;;;;;;;;;;4920169;29;20196;-71
2023/12/10 12:48:49;;;;;;;10.30;3.23;;;;;;;;;;4916340;29;20189;-71
2023/12/10 12:51:14;;;;;;;9.30;3.17;;;;;;;;;;4912943;29;20193;-71
2023/12/10 12:53:39;;;;;;;14.40;3.53;;;;;;;;;;4915169;29;20295;-71
2023/12/10 12:56:05;;;;;;;12.47;2.90;;;;;;;;;;4919408;29;20195;-71
2023/12/10 12:58:30;;;;;;;7.63;3.30;;;;;;;;;;4916810;29;20189;-71
2023/12/10 13:00:56;;;;;;;7.83;2.63;;;;;;;;;;4916407;29;20204;-71
2023/12/10 13:03:21;;;;;;;7.13;2.77;;;;;;;;;;4915412;29;20191;-71
2023/12/10 13:05:46;;;;;;;4.17;2.20;;;;;;;;;;4909621;29;20228;-71
2023/12/10 13:08:13;;;;;;;15.27;3.23;;;;;;;;;;4918243;29;20178;-71
2023/12/10 13:10:38;;;;;;;10.13;2.37;;;;;;;;;;4913919;29;20183;-71
2023/12/10 13:13:03;;;;;;;17.13;4.27;;;;;;;;;;4914889;29;20196;-71
2023/12/10 13:15:28;;;;;;;8.23;2.40;;;;;;;;;;4914862;29;20190;-71
2023/12/10 13:17:53;;;;;;;10.03;2.67;;;;;;;;;;4912624;29;20259;-71
2023/12/10 13:20:18;;;;;;;7.93;2.60;;;;;;;;;;4909657;29;20215;-71
2023/12/10 13:22:44;;;;;;;10.60;3.00;;;;;;;;;;4912781;29;20196;-71
2023/12/10 13:25:09;;;;;;;7.20;2.40;;;;;;;;;;4909768;29;20186;-71
2023/12/10 13:27:34;;;;;;;10.13;2.77;;;;;;;;;;4910665;29;20449;-71
2023/12/10 13:29:59;;;;;;;8.20;2.70;;;;;;;;;;4912299;29;20288;-71
2023/12/10 13:32:25;;;;;;;7.40;2.37;;;;;;;;;;4910046;29;20175;-71
2023/12/10 13:34:50;;;;;;;9.13;2.83;;;;;;;;;;4909330;29;20218;-71
2023/12/10 13:37:15;;;;;;;7.50;2.50;;;;;;;;;;4912383;29;20178;-71
2023/12/10 13:39:41;;;;;;;9.93;3.27;;;;;;;;;;4919831;29;20199;-71
2023/12/10 13:42:06;;;;;;;6.23;2.40;;;;;;;;;;4913543;29;20221;-71
2023/12/10 13:44:31;;;;;;;11.33;2.67;;;;;;;;;;4911446;29;20221;-71
2023/12/10 13:46:56;;;;;;;10.83;3.30;;;;;;;;;;4913199;29;20192;-72
2023/12/10 13:49:21;;;;;;;11.57;3.13;;;;;;;;;;4914872;29;20230;-71
2023/12/10 13:51:47;;;;;;;9.80;3.60;;;;;;;;;;4910668;29;20178;-72
2023/12/10 13:54:12;;;;;;;9.00;3.10;;;;;;;;;;4911480;29;20230;-71
2023/12/10 13:56:37;;;;;;;9.40;2.97;;;;;;;;;;4913255;29;20189;-71
2023/12/10 13:59:03;;;;;;;6.27;2.70;;;;;;;;;;4907864;29;20278;-71
2023/12/10 14:01:28;;;;;;;7.80;2.73;;;;;;;;;;4908728;29;20258;-71
2023/12/10 14:03:54;;;;;;;6.03;2.63;;;;;;;;;;4918771;29;20471;-71
2023/12/10 14:06:20;;;;;;;7.50;2.70;;;;;;;;;;4915572;29;20262;-71
2023/12/10 14:08:45;;;;;;;11.20;3.57;;;;;;;;;;4915112;29;20185;-71
2023/12/10 14:11:10;;;;;;;10.33;3.20;;;;;;;;;;4907581;29;20209;-71
2023/12/10 14:13:35;;;;;;;6.17;2.57;;;;;;;;;;4913371;29;20219;-71
2023/12/10 14:16:01;;;;;;;7.73;2.70;;;;;;;;;;4916080;29;20219;-71
2023/12/10 14:18:26;;;;;;;7.07;2.60;;;;;;;;;;4918884;29;20184;-72
2023/12/10 14:20:51;;;;;;;9.03;2.80;;;;;;;;;;4909665;29;20239;-71